createdAt,value
2019-01-31T00:00:26.290Z,19.90
2019-01-31T00:03:39.435Z,16.20
2019-01-31T00:06:53.643Z,18.33
2019-01-31T00:10:06.123Z,20.90
2019-01-31T00:13:23.493Z,13.37
2019-01-31T00:16:37.120Z,13.07
2019-01-31T00:20:15.973Z,14.67
2019-01-31T00:23:27.652Z,12.60
2019-01-31T00:27:08.781Z,9.63
2019-01-31T00:30:23.543Z,9.97
2019-01-31T00:33:40.154Z,10.03
2019-01-31T00:52:05.664Z,13.70
2019-01-31T00:55:47.496Z,11.30
2019-01-31T00:58:56.528Z,9.57
2019-01-31T01:01:59.444Z,10.00
2019-01-31T01:04:57.280Z,8.70
2019-01-31T01:08:21.871Z,10.00
2019-01-31T01:11:32.450Z,8.67
2019-01-31T01:15:12.158Z,8.33
2019-01-31T01:18:17.521Z,7.97
2019-01-31T01:21:46.898Z,8.03
2019-01-31T01:25:07.870Z,7.67
2019-01-31T01:28:43.193Z,8.03
2019-01-31T01:32:08.522Z,8.00
2019-01-31T01:35:32.935Z,7.83
2019-01-31T01:39:06.855Z,7.97
2019-01-31T01:42:11.149Z,7.90
2019-01-31T01:45:23.346Z,8.10
2019-01-31T01:48:32.758Z,7.73
2019-01-31T01:52:02.106Z,7.50
2019-01-31T01:55:34.024Z,8.23
2019-01-31T01:59:03.069Z,7.67
2019-01-31T02:02:37.274Z,8.10
2019-01-31T02:06:06.525Z,7.93
2019-01-31T02:09:34.599Z,7.50
2019-01-31T02:12:34.748Z,7.60
2019-01-31T02:16:06.828Z,7.37
2019-01-31T02:19:07.326Z,7.77
2019-01-31T02:22:45.926Z,7.80
2019-01-31T02:26:21.483Z,7.80
2019-01-31T02:29:32.563Z,7.50
2019-01-31T02:32:43.974Z,7.57
2019-01-31T02:36:13.385Z,7.67
2019-01-31T02:39:15.377Z,8.03
2019-01-31T02:42:41.997Z,7.63
2019-01-31T02:46:06.204Z,7.83
2019-01-31T02:49:02.134Z,7.97
2019-01-31T02:52:17.267Z,8.10
2019-01-31T02:55:51.312Z,7.63
2019-01-31T02:58:47.155Z,8.20
2019-01-31T03:02:21.737Z,7.97
2019-01-31T03:05:45.168Z,8.03
2019-01-31T03:08:50.221Z,8.13
2019-01-31T03:11:53.907Z,8.10
2019-01-31T03:15:31.990Z,8.23
2019-01-31T03:18:43.955Z,8.10
2019-01-31T03:21:56.772Z,7.87
2019-01-31T03:25:29.306Z,7.77
2019-01-31T03:29:10.796Z,7.97
2019-01-31T03:32:27.879Z,8.00
2019-01-31T03:35:47.518Z,8.33
2019-01-31T03:38:58.654Z,7.90
2019-01-31T03:42:05.024Z,7.97
2019-01-31T03:45:15.057Z,7.80
2019-01-31T03:48:46.880Z,8.07
2019-01-31T03:52:03.891Z,8.10
2019-01-31T03:55:30.761Z,7.97
2019-01-31T03:58:46.396Z,8.03
2019-01-31T04:02:12.708Z,8.10
2019-01-31T04:05:18.700Z,7.90
2019-01-31T04:08:08.401Z,8.40
2019-01-31T04:10:56.908Z,8.00
2019-01-31T04:13:45.519Z,8.47
2019-01-31T04:16:34.212Z,8.10
2019-01-31T04:19:24.179Z,8.43
2019-01-31T04:22:12.371Z,8.40
2019-01-31T04:25:00.477Z,8.10
2019-01-31T04:27:48.243Z,7.87
2019-01-31T04:30:36.881Z,8.40
2019-01-31T04:33:25.781Z,8.30
2019-01-31T04:36:13.630Z,8.43
2019-01-31T04:39:02.004Z,8.47
2019-01-31T04:41:50.426Z,8.00
2019-01-31T04:44:39.471Z,7.60
2019-01-31T04:47:28.722Z,7.77
2019-01-31T04:50:18.098Z,8.00
2019-01-31T04:53:07.389Z,8.00
2019-01-31T04:55:55.750Z,8.40
2019-01-31T04:58:45.092Z,7.70
2019-01-31T05:01:34.178Z,7.47
2019-01-31T05:04:23.621Z,8.00
2019-01-31T05:07:12.414Z,8.03
2019-01-31T05:10:00.505Z,7.83
2019-01-31T05:12:48.590Z,7.90
2019-01-31T05:15:39.689Z,8.63
2019-01-31T05:18:28.338Z,8.37
2019-01-31T05:21:20.984Z,7.90
2019-01-31T05:24:11.630Z,8.40
2019-01-31T05:26:59.602Z,8.60
2019-01-31T05:29:48.399Z,8.20
2019-01-31T05:32:37.526Z,9.03
2019-01-31T05:35:26.780Z,9.30
2019-01-31T05:38:17.570Z,9.43
2019-01-31T05:41:06.250Z,9.33
2019-01-31T05:43:55.120Z,9.17
2019-01-31T05:46:43.854Z,10.93
2019-01-31T05:49:31.952Z,9.77
2019-01-31T05:52:24.139Z,9.30
2019-01-31T05:55:12.845Z,9.27
2019-01-31T05:58:02.009Z,9.40
2019-01-31T06:00:50.729Z,9.87
2019-01-31T06:03:38.847Z,9.23
2019-01-31T06:06:29.410Z,9.50
2019-01-31T06:09:18.617Z,9.80
2019-01-31T06:12:07.139Z,10.50
2019-01-31T06:14:57.667Z,10.57
2019-01-31T06:17:46.116Z,10.07
2019-01-31T06:20:34.702Z,10.93
2019-01-31T06:23:24.280Z,10.90
2019-01-31T06:26:12.838Z,10.80
2019-01-31T06:29:01.994Z,10.67
2019-01-31T06:31:50.889Z,10.90
2019-01-31T06:34:39.369Z,11.10
2019-01-31T06:37:28.449Z,10.90
2019-01-31T06:40:19.107Z,9.83
2019-01-31T06:43:07.825Z,10.50
2019-01-31T06:45:57.304Z,10.23
2019-01-31T06:48:46.729Z,10.10
2019-01-31T06:51:36.265Z,10.10
2019-01-31T06:54:25.086Z,10.50
2019-01-31T06:57:13.547Z,10.10
2019-01-31T07:00:02.484Z,10.37
2019-01-31T07:02:52.555Z,10.87
2019-01-31T07:05:41.500Z,11.00
2019-01-31T07:08:30.667Z,11.83
2019-01-31T07:11:29.390Z,12.87
2019-01-31T07:14:10.069Z,13.27
2019-01-31T07:16:59.437Z,12.17
2019-01-31T07:19:47.820Z,11.80
2019-01-31T07:22:36.407Z,11.83
2019-01-31T07:25:30.747Z,12.50
2019-01-31T07:28:19.637Z,11.20
2019-01-31T07:31:08.043Z,12.33
2019-01-31T07:33:57.356Z,12.10
2019-01-31T07:36:46.311Z,12.03
2019-01-31T07:39:35.128Z,13.20
2019-01-31T07:42:23.795Z,12.63
2019-01-31T07:45:16.887Z,12.07
2019-01-31T07:48:05.057Z,11.47
2019-01-31T07:50:53.792Z,10.00
2019-01-31T07:53:42.323Z,11.27
2019-01-31T07:56:30.674Z,10.20
2019-01-31T07:59:20.224Z,9.70
2019-01-31T08:02:09.311Z,9.93
2019-01-31T08:04:58.079Z,9.93
2019-01-31T08:07:48.846Z,9.23
2019-01-31T08:10:39.369Z,8.90
2019-01-31T08:13:28.393Z,8.20
2019-01-31T08:16:16.447Z,7.60
2019-01-31T08:19:04.897Z,7.93
2019-01-31T08:21:53.530Z,7.50
2019-01-31T08:24:42.096Z,7.70
2019-01-31T08:27:31.523Z,8.23
2019-01-31T08:30:22.912Z,7.57
2019-01-31T08:33:12.343Z,7.60
2019-01-31T08:36:00.792Z,7.60
2019-01-31T08:38:49.872Z,7.50
2019-01-31T08:41:38.724Z,7.27
2019-01-31T08:44:29.992Z,8.13
2019-01-31T08:47:18.652Z,8.03
2019-01-31T08:50:08.763Z,8.10
2019-01-31T08:52:58.743Z,7.70
2019-01-31T08:55:47.674Z,8.10
2019-01-31T08:58:40.277Z,8.40
2019-01-31T09:01:28.470Z,8.13
2019-01-31T09:04:16.937Z,8.07
2019-01-31T09:07:05.565Z,7.97
2019-01-31T09:09:54.074Z,7.87
2019-01-31T09:12:42.812Z,7.70
2019-01-31T09:15:31.477Z,8.17
2019-01-31T09:18:20.580Z,8.43
2019-01-31T09:21:30.378Z,8.10
2019-01-31T09:24:44.869Z,8.10
2019-01-31T09:28:26.526Z,8.33
2019-01-31T09:32:04.142Z,6.57
2019-01-31T09:35:24.042Z,6.90
2019-01-31T09:39:08.838Z,7.40
2019-01-31T09:42:31.992Z,7.53
2019-01-31T09:45:56.824Z,7.93
2019-01-31T09:49:15.611Z,7.30
2019-01-31T09:52:39.592Z,7.17
2019-01-31T09:56:24.490Z,7.53
2019-01-31T09:59:44.561Z,6.80
2019-01-31T10:02:56.875Z,6.60
2019-01-31T10:06:06.901Z,6.57
2019-01-31T10:09:32.861Z,6.70
2019-01-31T10:13:27.287Z,7.00
2019-01-31T10:16:54.281Z,6.57
2019-01-31T10:20:42.547Z,6.60
2019-01-31T10:24:18.571Z,6.60
2019-01-31T10:27:41.352Z,6.20
2019-01-31T10:30:58.292Z,6.10
2019-01-31T10:38:04.991Z,6.80
2019-01-31T10:41:49.996Z,7.20
2019-01-31T10:45:17.232Z,7.60
2019-01-31T10:48:56.406Z,5.83
2019-01-31T10:51:55.426Z,6.37
2019-01-31T10:55:15.423Z,6.07
2019-01-31T10:58:50.610Z,5.87
2019-01-31T11:02:16.182Z,6.13
2019-01-31T11:05:48.408Z,6.03
2019-01-31T11:09:22.922Z,7.23
2019-01-31T11:13:00.253Z,7.00
2019-01-31T11:16:20.922Z,6.20
2019-01-31T11:19:35.851Z,6.17
2019-01-31T11:23:14.165Z,6.80
2019-01-31T11:26:31.581Z,7.80
2019-01-31T11:29:45.889Z,5.93
2019-01-31T11:33:12.947Z,8.43
2019-01-31T11:36:28.440Z,5.53
2019-01-31T11:39:44.599Z,7.50
2019-01-31T11:43:12.042Z,6.83
2019-01-31T11:46:40.802Z,5.70
2019-01-31T11:50:02.241Z,5.27
2019-01-31T11:53:12.769Z,5.23
2019-01-31T11:56:33.502Z,5.70
2019-01-31T11:59:21.937Z,5.77
2019-01-31T12:02:10.267Z,5.50
2019-01-31T12:04:59.717Z,5.80
2019-01-31T12:07:48.277Z,5.43
2019-01-31T12:10:36.804Z,7.07
2019-01-31T12:13:26.419Z,4.90
2019-01-31T12:16:15.039Z,5.17
2019-01-31T12:19:03.398Z,4.50
2019-01-31T12:21:52.272Z,4.77
2019-01-31T12:24:40.661Z,4.10
2019-01-31T12:27:29.261Z,4.97
2019-01-31T12:30:21.284Z,6.03
2019-01-31T12:37:11.376Z,5.53
2019-01-31T12:40:00.468Z,3.87
2019-01-31T12:42:48.959Z,4.00
2019-01-31T12:45:38.551Z,3.87
2019-01-31T12:48:28.248Z,4.00
2019-01-31T12:51:17.548Z,4.67
2019-01-31T12:54:06.299Z,4.20
2019-01-31T12:56:54.448Z,3.80
2019-01-31T12:59:43.767Z,3.70
2019-01-31T13:02:32.348Z,4.00
2019-01-31T13:05:20.806Z,3.60
2019-01-31T13:08:08.855Z,3.50
2019-01-31T13:10:57.153Z,4.30
2019-01-31T13:13:46.465Z,3.47
2019-01-31T13:16:35.939Z,3.20
2019-01-31T13:19:25.046Z,3.43
2019-01-31T13:22:14.711Z,3.40
2019-01-31T13:25:02.702Z,3.00
2019-01-31T13:27:51.703Z,3.40
2019-01-31T13:30:41.025Z,3.40
2019-01-31T13:33:30.031Z,3.30
2019-01-31T13:36:19.208Z,2.97
2019-01-31T13:39:13.760Z,3.30
2019-01-31T13:42:02.943Z,3.40
2019-01-31T13:44:52.500Z,3.47
2019-01-31T13:47:41.197Z,3.40
2019-01-31T13:50:30.202Z,3.63
2019-01-31T13:53:18.988Z,3.63
2019-01-31T13:56:08.928Z,3.50
2019-01-31T13:58:58.398Z,3.73
2019-01-31T14:01:47.764Z,3.67
2019-01-31T14:04:36.566Z,4.00
2019-01-31T14:07:27.612Z,4.20
2019-01-31T14:10:19.607Z,4.37
2019-01-31T14:13:11.452Z,4.93
2019-01-31T14:15:58.900Z,4.47
2019-01-31T14:18:47.777Z,4.53
2019-01-31T14:21:36.671Z,4.60
2019-01-31T14:24:24.662Z,4.90
2019-01-31T14:27:13.718Z,3.90
2019-01-31T14:33:26.954Z,4.30
2019-01-31T14:36:15.795Z,4.50
2019-01-31T14:39:06.461Z,4.00
2019-01-31T14:41:55.881Z,4.53
2019-01-31T14:44:45.498Z,4.73
2019-01-31T14:47:55.748Z,4.53
2019-01-31T14:50:44.165Z,4.80
2019-01-31T14:53:33.542Z,4.83
2019-01-31T14:56:22.444Z,4.80
2019-01-31T14:59:12.328Z,4.50
2019-01-31T15:02:04.824Z,5.10
2019-01-31T15:04:53.960Z,5.07
2019-01-31T15:07:42.165Z,5.17
2019-01-31T15:10:30.708Z,5.17
2019-01-31T15:13:28.010Z,5.57
2019-01-31T15:16:16.785Z,5.27
2019-01-31T15:19:27.694Z,5.43
2019-01-31T15:22:16.760Z,5.40
2019-01-31T15:25:06.441Z,5.70
2019-01-31T15:27:54.701Z,5.50
2019-01-31T15:30:52.031Z,6.00
2019-01-31T15:33:41.113Z,5.90
2019-01-31T15:36:29.216Z,6.33
2019-01-31T15:39:19.366Z,6.03
2019-01-31T15:42:07.694Z,5.80
2019-01-31T15:44:59.523Z,6.00
2019-01-31T15:47:48.264Z,5.70
2019-01-31T15:50:37.068Z,5.57
2019-01-31T15:53:26.029Z,5.73
2019-01-31T15:56:15.757Z,5.97
2019-01-31T15:59:05.167Z,5.80
2019-01-31T16:01:54.807Z,5.93
2019-01-31T16:04:44.103Z,6.20
2019-01-31T16:07:32.169Z,6.13
2019-01-31T16:10:20.776Z,6.67
2019-01-31T16:13:11.307Z,6.63
2019-01-31T16:16:01.022Z,6.23
2019-01-31T16:18:53.660Z,6.73
2019-01-31T16:21:42.665Z,6.53
2019-01-31T16:24:31.107Z,6.37
2019-01-31T16:27:19.315Z,6.33
2019-01-31T16:30:10.357Z,5.67
2019-01-31T16:32:59.328Z,5.90
2019-01-31T16:35:49.343Z,5.70
2019-01-31T16:38:37.709Z,5.90
2019-01-31T16:41:26.701Z,6.30
2019-01-31T16:44:15.558Z,6.37
2019-01-31T16:47:05.045Z,6.83
2019-01-31T16:49:53.790Z,6.27
2019-01-31T16:52:42.800Z,6.20
2019-01-31T16:55:31.841Z,6.60
2019-01-31T16:58:20.945Z,6.63
2019-01-31T17:01:09.568Z,6.70
2019-01-31T17:04:02.654Z,6.77
2019-01-31T17:06:52.329Z,6.77
2019-01-31T17:09:49.520Z,6.63
2019-01-31T17:12:38.430Z,7.03
2019-01-31T17:15:33.958Z,6.90
2019-01-31T17:18:23.589Z,7.30
2019-01-31T17:21:13.164Z,6.77
2019-01-31T17:24:03.410Z,7.00
2019-01-31T17:27:04.820Z,6.80
2019-01-31T17:29:55.325Z,7.07
2019-01-31T17:32:47.806Z,7.20
2019-01-31T17:35:40.349Z,7.03
2019-01-31T17:38:32.947Z,7.63
2019-01-31T17:41:20.686Z,7.27
2019-01-31T17:44:10.559Z,7.37
2019-01-31T17:47:00.850Z,7.30
2019-01-31T17:49:50.537Z,7.97
2019-01-31T17:52:40.375Z,8.53
2019-01-31T17:55:29.670Z,8.70
2019-01-31T17:58:18.792Z,8.83
2019-01-31T18:01:07.816Z,9.50
2019-01-31T18:03:56.424Z,9.00
2019-01-31T18:06:45.265Z,9.67
2019-01-31T18:09:33.731Z,8.70
2019-01-31T18:12:21.686Z,9.27
2019-01-31T18:15:10.622Z,9.60
2019-01-31T18:17:59.059Z,10.00
2019-01-31T18:20:48.134Z,11.10
2019-01-31T18:23:37.335Z,10.47
2019-01-31T18:26:26.244Z,11.17
2019-01-31T18:33:13.325Z,10.63
2019-01-31T18:36:11.191Z,11.20
2019-01-31T18:39:03.189Z,10.60
2019-01-31T18:41:52.859Z,10.73
2019-01-31T18:44:43.739Z,9.80
2019-01-31T18:47:33.535Z,9.50
2019-01-31T18:50:24.972Z,10.93
2019-01-31T18:53:13.435Z,11.37
2019-01-31T18:56:02.739Z,10.77
2019-01-31T18:58:51.385Z,10.40
2019-01-31T19:01:39.764Z,11.27
2019-01-31T19:04:27.992Z,11.13
2019-01-31T19:07:17.202Z,11.80
2019-01-31T19:10:07.217Z,10.90
2019-01-31T19:13:03.969Z,11.17
2019-01-31T19:16:04.339Z,11.43
2019-01-31T19:18:43.128Z,11.77
2019-01-31T19:21:31.930Z,10.90
2019-01-31T19:24:20.322Z,11.17
2019-01-31T19:27:09.346Z,11.50
2019-01-31T19:30:00.607Z,11.40
2019-01-31T19:32:53.394Z,12.03
2019-01-31T19:35:47.016Z,12.27
2019-01-31T19:38:44.191Z,12.23
2019-01-31T19:41:32.622Z,12.70
2019-01-31T19:44:21.549Z,12.67
2019-01-31T19:47:11.240Z,12.67
2019-01-31T19:50:00.158Z,12.50
2019-01-31T19:52:48.982Z,12.37
2019-01-31T19:55:38.915Z,13.20
2019-01-31T19:58:47.111Z,11.90
2019-01-31T20:01:55.408Z,11.40
2019-01-31T20:04:44.559Z,10.80
2019-01-31T20:07:33.771Z,9.93
2019-01-31T20:10:24.576Z,10.57
2019-01-31T20:13:13.438Z,10.20
2019-01-31T20:16:04.583Z,10.13
2019-01-31T20:18:55.242Z,10.80
2019-01-31T20:21:43.568Z,10.87
2019-01-31T20:24:32.643Z,10.53
2019-01-31T20:27:22.125Z,9.90
2019-01-31T20:30:12.838Z,9.87
2019-01-31T20:33:03.202Z,9.97
2019-01-31T20:35:52.310Z,9.60
2019-01-31T20:38:43.525Z,9.83
2019-01-31T20:41:31.780Z,9.97
2019-01-31T20:44:20.348Z,9.43
2019-01-31T20:47:09.190Z,10.10
2019-01-31T20:49:58.078Z,9.47
2019-01-31T20:52:46.699Z,9.80
2019-01-31T20:55:35.151Z,9.83
2019-01-31T20:58:23.343Z,10.27
2019-01-31T21:01:11.990Z,10.03
2019-01-31T21:04:01.202Z,11.13
2019-01-31T21:06:49.972Z,12.43
2019-01-31T21:09:38.935Z,11.00
2019-01-31T21:12:28.086Z,9.87
2019-01-31T21:15:40.943Z,10.00
2019-01-31T21:18:30.300Z,10.60
2019-01-31T21:21:19.462Z,10.87
2019-01-31T21:24:08.703Z,11.77
2019-01-31T21:26:58.370Z,10.73
2019-01-31T21:29:47.134Z,9.63
2019-01-31T21:32:36.490Z,9.57
2019-01-31T21:35:31.535Z,10.30
2019-01-31T21:38:20.592Z,9.73
2019-01-31T21:41:09.292Z,9.20
2019-01-31T21:44:00.349Z,9.80
2019-01-31T21:46:49.624Z,9.90
2019-01-31T21:49:38.409Z,9.30
2019-01-31T21:52:26.876Z,9.67
2019-01-31T21:55:16.349Z,10.17
2019-01-31T21:58:05.927Z,9.67
2019-01-31T22:00:54.601Z,9.40
2019-01-31T22:03:43.462Z,9.50
2019-01-31T22:06:32.118Z,9.60
2019-01-31T22:09:20.727Z,9.93
2019-01-31T22:12:10.196Z,9.70
2019-01-31T22:14:58.647Z,9.93
2019-01-31T22:17:47.775Z,9.50
2019-01-31T22:20:36.648Z,9.43
2019-01-31T22:23:25.114Z,9.67
2019-01-31T22:26:13.854Z,8.70
2019-01-31T22:29:03.491Z,9.70
2019-01-31T22:31:52.177Z,8.90
2019-01-31T22:34:40.878Z,9.20
2019-01-31T22:37:29.553Z,10.10
2019-01-31T22:40:18.523Z,9.83
2019-01-31T22:43:09.359Z,9.60
2019-01-31T22:45:57.980Z,8.90
2019-01-31T22:48:46.268Z,9.20
2019-01-31T22:51:37.594Z,9.30
2019-01-31T22:54:26.330Z,9.03
2019-01-31T22:57:14.255Z,9.23
2019-01-31T23:00:07.304Z,9.27
2019-01-31T23:02:56.191Z,9.53
2019-01-31T23:05:44.349Z,9.00
2019-01-31T23:08:33.433Z,9.07
2019-01-31T23:11:22.680Z,9.17
2019-01-31T23:14:12.531Z,8.90
2019-01-31T23:17:01.751Z,8.80
2019-01-31T23:19:50.599Z,9.00
2019-01-31T23:22:38.845Z,9.00
2019-01-31T23:25:39.431Z,8.97
2019-01-31T23:28:18.236Z,8.80
2019-01-31T23:31:07.668Z,8.90
2019-01-31T23:33:56.285Z,8.60
2019-01-31T23:36:44.837Z,8.70
2019-01-31T23:39:32.609Z,9.20
2019-01-31T23:42:21.043Z,9.50
2019-01-31T23:45:11.782Z,9.20
2019-01-31T23:48:01.001Z,9.10
2019-01-31T23:50:50.074Z,9.47
2019-01-31T23:53:58.251Z,9.27
2019-01-31T23:56:47.660Z,8.47
2019-01-31T23:59:36.064Z,8.23
